Current Weather

Waukegan

Waukegan, Illinois (KUGN)

Report from: Friday, February 3, 2023 10:51 PM CST
Current time: Friday, February 3, 2023 11:39 PM CST

Nearby weather
Weather history
Weather forecast

Temperature-12.2°C (10.0°F)
Wind chill-17.6°C (0.4°F)
Dew point-21.1°C (-6.0°F)
Winds 5 kts (2.6 m/s, 5.8 mph) South-Southwest (200°)
Visibility10 mi. (16.1 km)
Clouds Ceiling: Overcast 6,000 ft. (1,829 m)
Altimeter30.46 in.Hg (1031 mB)
Relative humidity47 %
Density altitude-4,020 ft. (-1,225 m)
Sea-level pressure103.4 kPa (1034 mB, 30.54 in.Hg)
Remarks Fully automated report
Automated weather observing station with precipitation discriminator
Flight conditions Visual Meteorological Conditions
Raw dataKUGN 040451Z AUTO 20005KT 10SM OVC060 M12/M21 A3046 RMK AO2 SLP342 T11221211
An unhandled exception has occurred. See browser dev tools for details. Reload 🗙